sensor_id;sensor_type;location;lat;lon;timestamp;P1;durP1;ratioP1;P2;durP2;ratioP2
6561;SDS011;3314;50.890;4.722;2023-09-30T00:00:09;8.1;;;2.1;;
6561;SDS011;3314;50.890;4.722;2023-09-30T00:02:09;9.0;;;2.9;;
6561;SDS011;3314;50.890;4.722;2023-09-30T00:04:09;10.1;;;3.2;;
6561;SDS011;3314;50.890;4.722;2023-09-30T00:06:09;8.5;;;2.4;;
6561;SDS011;3314;50.890;4.722;2023-09-30T00:08:09;8.4;;;3.0;;
6561;SDS011;3314;50.890;4.722;2023-09-30T00:10:10;7.9;;;2.6;;
6561;SDS011;3314;50.890;4.722;2023-09-30T00:12:00;10.9;;;2.7;;
6561;SDS011;3314;50.890;4.722;2023-09-30T00:13:59;10.3;;;3.1;;
6561;SDS011;3314;50.890;4.722;2023-09-30T00:15:59;8.7;;;2.3;;
6561;SDS011;3314;50.890;4.722;2023-09-30T00:17:59;10.5;;;2.6;;
6561;SDS011;3314;50.890;4.722;2023-09-30T00:19:59;8.3;;;2.3;;
6561;SDS011;3314;50.890;4.722;2023-09-30T00:21:59;7.2;;;2.2;;
6561;SDS011;3314;50.890;4.722;2023-09-30T00:23:58;8.2;;;2.4;;
6561;SDS011;3314;50.890;4.722;2023-09-30T00:25:58;12.8;;;2.3;;
6561;SDS011;3314;50.890;4.722;2023-09-30T00:27:58;9.8;;;2.1;;
6561;SDS011;3314;50.890;4.722;2023-09-30T00:29:57;9.2;;;2.6;;
6561;SDS011;3314;50.890;4.722;2023-09-30T00:31:57;8.3;;;2.4;;
6561;SDS011;3314;50.890;4.722;2023-09-30T00:33:57;11.8;;;3.3;;
6561;SDS011;3314;50.890;4.722;2023-09-30T00:35:56;7.5;;;2.3;;
6561;SDS011;3314;50.890;4.722;2023-09-30T00:37:56;9.0;;;2.8;;
6561;SDS011;3314;50.890;4.722;2023-09-30T00:39:56;8.2;;;2.2;;
6561;SDS011;3314;50.890;4.722;2023-09-30T00:41:56;7.4;;;2.3;;
6561;SDS011;3314;50.890;4.722;2023-09-30T00:43:56;11.1;;;3.0;;
6561;SDS011;3314;50.890;4.722;2023-09-30T00:45:58;12.4;;;2.2;;
6561;SDS011;3314;50.890;4.722;2023-09-30T00:48:00;12.6;;;2.5;;
6561;SDS011;3314;50.890;4.722;2023-09-30T00:50:00;8.0;;;2.2;;
6561;SDS011;3314;50.890;4.722;2023-09-30T00:52:02;10.5;;;2.4;;
6561;SDS011;3314;50.890;4.722;2023-09-30T00:54:02;13.5;;;3.0;;
6561;SDS011;3314;50.890;4.722;2023-09-30T00:56:03;8.2;;;2.6;;
6561;SDS011;3314;50.890;4.722;2023-09-30T00:58:03;8.6;;;2.5;;
6561;SDS011;3314;50.890;4.722;2023-09-30T01:00:07;8.2;;;2.4;;
6561;SDS011;3314;50.890;4.722;2023-09-30T01:01:56;9.8;;;2.4;;
6561;SDS011;3314;50.890;4.722;2023-09-30T01:03:56;9.5;;;2.4;;
6561;SDS011;3314;50.890;4.722;2023-09-30T01:05:56;11.5;;;2.9;;
6561;SDS011;3314;50.890;4.722;2023-09-30T01:07:55;9.9;;;3.2;;
6561;SDS011;3314;50.890;4.722;2023-09-30T01:09:55;10.1;;;2.6;;
6561;SDS011;3314;50.890;4.722;2023-09-30T01:11:54;11.6;;;2.7;;
6561;SDS011;3314;50.890;4.722;2023-09-30T01:13:55;9.7;;;3.0;;
6561;SDS011;3314;50.890;4.722;2023-09-30T01:15:54;9.2;;;2.9;;
6561;SDS011;3314;50.890;4.722;2023-09-30T01:17:54;10.0;;;2.9;;
6561;SDS011;3314;50.890;4.722;2023-09-30T01:19:54;12.2;;;2.9;;
6561;SDS011;3314;50.890;4.722;2023-09-30T01:21:55;9.2;;;2.5;;
6561;SDS011;3314;50.890;4.722;2023-09-30T01:23:55;9.4;;;3.2;;
6561;SDS011;3314;50.890;4.722;2023-09-30T01:25:54;10.3;;;3.3;;
6561;SDS011;3314;50.890;4.722;2023-09-30T01:27:54;8.9;;;2.7;;
6561;SDS011;3314;50.890;4.722;2023-09-30T01:29:54;10.4;;;3.0;;
6561;SDS011;3314;50.890;4.722;2023-09-30T01:31:54;10.0;;;2.9;;
6561;SDS011;3314;50.890;4.722;2023-09-30T01:33:55;10.4;;;3.1;;
6561;SDS011;3314;50.890;4.722;2023-09-30T01:35:54;10.9;;;2.9;;
6561;SDS011;3314;50.890;4.722;2023-09-30T01:37:54;8.4;;;2.8;;
6561;SDS011;3314;50.890;4.722;2023-09-30T01:39:55;8.2;;;2.6;;
6561;SDS011;3314;50.890;4.722;2023-09-30T01:41:55;8.5;;;2.5;;
6561;SDS011;3314;50.890;4.722;2023-09-30T01:43:54;11.6;;;2.8;;
6561;SDS011;3314;50.890;4.722;2023-09-30T01:45:54;9.8;;;2.7;;
6561;SDS011;3314;50.890;4.722;2023-09-30T01:47:54;7.6;;;2.6;;
6561;SDS011;3314;50.890;4.722;2023-09-30T01:49:53;10.2;;;3.2;;
6561;SDS011;3314;50.890;4.722;2023-09-30T01:51:53;8.8;;;2.8;;
6561;SDS011;3314;50.890;4.722;2023-09-30T01:53:53;10.2;;;3.6;;
6561;SDS011;3314;50.890;4.722;2023-09-30T01:55:52;12.5;;;3.2;;
6561;SDS011;3314;50.890;4.722;2023-09-30T01:57:52;10.4;;;3.2;;
6561;SDS011;3314;50.890;4.722;2023-09-30T01:59:52;9.1;;;3.0;;
6561;SDS011;3314;50.890;4.722;2023-09-30T02:01:51;8.6;;;2.5;;
6561;SDS011;3314;50.890;4.722;2023-09-30T02:03:51;8.3;;;2.8;;
6561;SDS011;3314;50.890;4.722;2023-09-30T02:05:51;10.0;;;3.3;;
6561;SDS011;3314;50.890;4.722;2023-09-30T02:07:50;10.6;;;3.4;;
6561;SDS011;3314;50.890;4.722;2023-09-30T02:09:50;12.4;;;3.5;;
6561;SDS011;3314;50.890;4.722;2023-09-30T02:11:50;11.1;;;3.0;;
6561;SDS011;3314;50.890;4.722;2023-09-30T02:13:49;10.1;;;3.2;;
6561;SDS011;3314;50.890;4.722;2023-09-30T02:15:49;9.2;;;3.2;;
6561;SDS011;3314;50.890;4.722;2023-09-30T02:17:49;11.5;;;3.3;;
6561;SDS011;3314;50.890;4.722;2023-09-30T02:19:49;11.0;;;3.4;;
6561;SDS011;3314;50.890;4.722;2023-09-30T02:21:48;16.5;;;3.4;;
6561;SDS011;3314;50.890;4.722;2023-09-30T02:23:48;11.4;;;4.0;;
6561;SDS011;3314;50.890;4.722;2023-09-30T02:25:48;10.8;;;3.5;;
6561;SDS011;3314;50.890;4.722;2023-09-30T02:27:49;10.1;;;3.0;;
6561;SDS011;3314;50.890;4.722;2023-09-30T02:29:48;12.4;;;3.7;;
6561;SDS011;3314;50.890;4.722;2023-09-30T02:31:48;9.4;;;3.4;;
6561;SDS011;3314;50.890;4.722;2023-09-30T02:33:48;9.4;;;2.8;;
6561;SDS011;3314;50.890;4.722;2023-09-30T02:35:48;13.1;;;3.4;;
6561;SDS011;3314;50.890;4.722;2023-09-30T02:37:47;10.9;;;3.3;;
6561;SDS011;3314;50.890;4.722;2023-09-30T02:39:47;10.5;;;3.0;;
6561;SDS011;3314;50.890;4.722;2023-09-30T02:41:47;11.6;;;3.1;;
6561;SDS011;3314;50.890;4.722;2023-09-30T02:43:47;13.8;;;4.2;;
6561;SDS011;3314;50.890;4.722;2023-09-30T02:45:47;12.6;;;4.3;;
6561;SDS011;3314;50.890;4.722;2023-09-30T02:47:47;13.0;;;4.0;;
6561;SDS011;3314;50.890;4.722;2023-09-30T02:49:47;9.8;;;3.3;;
6561;SDS011;3314;50.890;4.722;2023-09-30T02:51:46;14.9;;;3.9;;
6561;SDS011;3314;50.890;4.722;2023-09-30T02:53:48;12.5;;;3.4;;
6561;SDS011;3314;50.890;4.722;2023-09-30T02:55:48;8.9;;;3.0;;
6561;SDS011;3314;50.890;4.722;2023-09-30T02:57:47;10.0;;;3.0;;
6561;SDS011;3314;50.890;4.722;2023-09-30T02:59:47;10.2;;;3.0;;
6561;SDS011;3314;50.890;4.722;2023-09-30T03:01:47;8.6;;;2.7;;
6561;SDS011;3314;50.890;4.722;2023-09-30T03:03:47;11.5;;;3.5;;
6561;SDS011;3314;50.890;4.722;2023-09-30T03:05:47;10.1;;;3.0;;
6561;SDS011;3314;50.890;4.722;2023-09-30T03:07:47;12.0;;;3.8;;
6561;SDS011;3314;50.890;4.722;2023-09-30T03:09:37;9.7;;;3.3;;
6561;SDS011;3314;50.890;4.722;2023-09-30T03:11:36;11.8;;;3.8;;
6561;SDS011;3314;50.890;4.722;2023-09-30T03:13:37;14.9;;;4.2;;
6561;SDS011;3314;50.890;4.722;2023-09-30T03:15:39;12.3;;;4.1;;
6561;SDS011;3314;50.890;4.722;2023-09-30T03:17:38;10.7;;;3.7;;
6561;SDS011;3314;50.890;4.722;2023-09-30T03:19:39;12.2;;;3.5;;
6561;SDS011;3314;50.890;4.722;2023-09-30T03:21:40;16.5;;;5.0;;
6561;SDS011;3314;50.890;4.722;2023-09-30T03:23:40;13.0;;;3.9;;
6561;SDS011;3314;50.890;4.722;2023-09-30T03:25:40;15.6;;;4.3;;
6561;SDS011;3314;50.890;4.722;2023-09-30T03:27:39;13.4;;;4.6;;
6561;SDS011;3314;50.890;4.722;2023-09-30T03:29:39;12.6;;;4.2;;
6561;SDS011;3314;50.890;4.722;2023-09-30T03:31:38;13.9;;;4.3;;
6561;SDS011;3314;50.890;4.722;2023-09-30T03:33:38;11.4;;;4.0;;
6561;SDS011;3314;50.890;4.722;2023-09-30T03:35:38;10.9;;;3.5;;
6561;SDS011;3314;50.890;4.722;2023-09-30T03:37:38;13.1;;;4.0;;
6561;SDS011;3314;50.890;4.722;2023-09-30T03:39:38;13.1;;;3.9;;
6561;SDS011;3314;50.890;4.722;2023-09-30T03:41:38;15.6;;;4.1;;
6561;SDS011;3314;50.890;4.722;2023-09-30T03:43:41;10.0;;;3.7;;
6561;SDS011;3314;50.890;4.722;2023-09-30T03:45:41;13.0;;;4.0;;
6561;SDS011;3314;50.890;4.722;2023-09-30T03:47:41;10.3;;;3.5;;
6561;SDS011;3314;50.890;4.722;2023-09-30T03:49:42;9.2;;;3.2;;
6561;SDS011;3314;50.890;4.722;2023-09-30T03:51:31;11.6;;;3.9;;
6561;SDS011;3314;50.890;4.722;2023-09-30T03:53:31;9.8;;;3.8;;
6561;SDS011;3314;50.890;4.722;2023-09-30T03:55:32;13.0;;;4.1;;
6561;SDS011;3314;50.890;4.722;2023-09-30T03:57:32;13.4;;;4.9;;
6561;SDS011;3314;50.890;4.722;2023-09-30T03:59:31;12.4;;;4.2;;
6561;SDS011;3314;50.890;4.722;2023-09-30T04:01:31;15.2;;;5.4;;
6561;SDS011;3314;50.890;4.722;2023-09-30T04:03:33;14.7;;;5.9;;
6561;SDS011;3314;50.890;4.722;2023-09-30T04:05:36;13.2;;;4.2;;
6561;SDS011;3314;50.890;4.722;2023-09-30T04:07:37;14.2;;;4.9;;
6561;SDS011;3314;50.890;4.722;2023-09-30T04:09:37;14.1;;;4.9;;
6561;SDS011;3314;50.890;4.722;2023-09-30T04:11:36;15.5;;;5.5;;
6561;SDS011;3314;50.890;4.722;2023-09-30T04:13:37;14.3;;;4.7;;
6561;SDS011;3314;50.890;4.722;2023-09-30T04:15:37;14.3;;;4.8;;
6561;SDS011;3314;50.890;4.722;2023-09-30T04:17:39;15.8;;;5.2;;
6561;SDS011;3314;50.890;4.722;2023-09-30T04:19:30;16.0;;;5.9;;
6561;SDS011;3314;50.890;4.722;2023-09-30T04:21:30;15.7;;;5.3;;
6561;SDS011;3314;50.890;4.722;2023-09-30T04:23:30;16.8;;;4.6;;
6561;SDS011;3314;50.890;4.722;2023-09-30T04:25:30;11.1;;;4.3;;
6561;SDS011;3314;50.890;4.722;2023-09-30T04:27:30;14.1;;;4.9;;
6561;SDS011;3314;50.890;4.722;2023-09-30T04:29:30;11.8;;;4.0;;
6561;SDS011;3314;50.890;4.722;2023-09-30T04:31:30;12.2;;;4.8;;
6561;SDS011;3314;50.890;4.722;2023-09-30T04:33:29;12.5;;;4.5;;
6561;SDS011;3314;50.890;4.722;2023-09-30T04:35:31;14.0;;;4.4;;
6561;SDS011;3314;50.890;4.722;2023-09-30T04:37:30;13.6;;;4.9;;
6561;SDS011;3314;50.890;4.722;2023-09-30T04:39:30;13.8;;;4.9;;
6561;SDS011;3314;50.890;4.722;2023-09-30T04:41:29;12.7;;;5.0;;
6561;SDS011;3314;50.890;4.722;2023-09-30T04:43:29;17.9;;;5.3;;
6561;SDS011;3314;50.890;4.722;2023-09-30T04:45:29;14.3;;;5.0;;
6561;SDS011;3314;50.890;4.722;2023-09-30T04:47:29;14.1;;;5.6;;
6561;SDS011;3314;50.890;4.722;2023-09-30T04:49:28;15.2;;;5.1;;
6561;SDS011;3314;50.890;4.722;2023-09-30T04:51:28;17.1;;;5.2;;
6561;SDS011;3314;50.890;4.722;2023-09-30T04:53:28;20.7;;;6.1;;
6561;SDS011;3314;50.890;4.722;2023-09-30T04:55:28;22.1;;;6.5;;
6561;SDS011;3314;50.890;4.722;2023-09-30T04:57:28;17.7;;;6.4;;
6561;SDS011;3314;50.890;4.722;2023-09-30T04:59:28;17.4;;;6.1;;
6561;SDS011;3314;50.890;4.722;2023-09-30T05:01:28;22.0;;;6.1;;
6561;SDS011;3314;50.890;4.722;2023-09-30T05:03:28;18.8;;;6.2;;
6561;SDS011;3314;50.890;4.722;2023-09-30T05:05:28;18.4;;;6.5;;
6561;SDS011;3314;50.890;4.722;2023-09-30T05:07:29;18.7;;;6.6;;
6561;SDS011;3314;50.890;4.722;2023-09-30T05:09:29;15.3;;;6.8;;
6561;SDS011;3314;50.890;4.722;2023-09-30T05:11:28;20.2;;;6.8;;
6561;SDS011;3314;50.890;4.722;2023-09-30T05:13:28;14.5;;;5.9;;
6561;SDS011;3314;50.890;4.722;2023-09-30T05:15:29;17.6;;;6.5;;
6561;SDS011;3314;50.890;4.722;2023-09-30T05:17:29;16.4;;;6.2;;
6561;SDS011;3314;50.890;4.722;2023-09-30T05:19:29;18.8;;;6.8;;
6561;SDS011;3314;50.890;4.722;2023-09-30T05:21:28;18.3;;;6.7;;
6561;SDS011;3314;50.890;4.722;2023-09-30T05:23:28;22.0;;;7.1;;
6561;SDS011;3314;50.890;4.722;2023-09-30T05:25:28;13.5;;;5.8;;
6561;SDS011;3314;50.890;4.722;2023-09-30T05:27:28;15.3;;;6.7;;
6561;SDS011;3314;50.890;4.722;2023-09-30T05:29:28;20.0;;;7.6;;
6561;SDS011;3314;50.890;4.722;2023-09-30T05:31:18;19.0;;;7.1;;
6561;SDS011;3314;50.890;4.722;2023-09-30T05:33:17;20.3;;;7.5;;
6561;SDS011;3314;50.890;4.722;2023-09-30T05:35:18;18.1;;;7.0;;
6561;SDS011;3314;50.890;4.722;2023-09-30T05:37:18;20.6;;;7.9;;
6561;SDS011;3314;50.890;4.722;2023-09-30T05:39:20;16.7;;;7.0;;
6561;SDS011;3314;50.890;4.722;2023-09-30T05:41:21;23.0;;;7.4;;
6561;SDS011;3314;50.890;4.722;2023-09-30T05:43:24;17.0;;;6.9;;
6561;SDS011;3314;50.890;4.722;2023-09-30T05:45:24;20.3;;;7.5;;
6561;SDS011;3314;50.890;4.722;2023-09-30T05:47:25;20.3;;;7.6;;
6561;SDS011;3314;50.890;4.722;2023-09-30T05:49:24;23.4;;;7.3;;
6561;SDS011;3314;50.890;4.722;2023-09-30T05:51:24;20.8;;;7.0;;
6561;SDS011;3314;50.890;4.722;2023-09-30T05:53:25;24.2;;;7.6;;
6561;SDS011;3314;50.890;4.722;2023-09-30T05:55:16;19.3;;;7.3;;
6561;SDS011;3314;50.890;4.722;2023-09-30T05:57:16;18.6;;;6.8;;
6561;SDS011;3314;50.890;4.722;2023-09-30T05:59:15;21.5;;;6.9;;
6561;SDS011;3314;50.890;4.722;2023-09-30T06:01:19;23.5;;;8.3;;
6561;SDS011;3314;50.890;4.722;2023-09-30T06:03:18;17.4;;;7.3;;
6561;SDS011;3314;50.890;4.722;2023-09-30T06:05:19;25.6;;;8.0;;
6561;SDS011;3314;50.890;4.722;2023-09-30T06:07:20;18.5;;;6.6;;
6561;SDS011;3314;50.890;4.722;2023-09-30T06:09:19;19.4;;;6.9;;
6561;SDS011;3314;50.890;4.722;2023-09-30T06:11:19;17.2;;;5.4;;
6561;SDS011;3314;50.890;4.722;2023-09-30T06:13:21;21.0;;;7.2;;
6561;SDS011;3314;50.890;4.722;2023-09-30T06:15:22;18.6;;;7.5;;
6561;SDS011;3314;50.890;4.722;2023-09-30T06:17:11;22.1;;;6.9;;
6561;SDS011;3314;50.890;4.722;2023-09-30T06:19:11;17.5;;;7.0;;
6561;SDS011;3314;50.890;4.722;2023-09-30T06:21:11;19.7;;;6.6;;
6561;SDS011;3314;50.890;4.722;2023-09-30T06:23:11;19.7;;;6.6;;
6561;SDS011;3314;50.890;4.722;2023-09-30T06:25:17;18.2;;;7.2;;
6561;SDS011;3314;50.890;4.722;2023-09-30T06:27:16;18.0;;;6.3;;
6561;SDS011;3314;50.890;4.722;2023-09-30T06:29:16;22.6;;;6.3;;
6561;SDS011;3314;50.890;4.722;2023-09-30T06:31:16;18.8;;;6.8;;
6561;SDS011;3314;50.890;4.722;2023-09-30T06:33:16;18.7;;;7.4;;
6561;SDS011;3314;50.890;4.722;2023-09-30T06:35:15;19.4;;;7.0;;
6561;SDS011;3314;50.890;4.722;2023-09-30T06:37:15;19.9;;;7.2;;
6561;SDS011;3314;50.890;4.722;2023-09-30T06:39:15;18.5;;;6.9;;
6561;SDS011;3314;50.890;4.722;2023-09-30T06:41:16;15.0;;;5.6;;
6561;SDS011;3314;50.890;4.722;2023-09-30T06:43:16;19.0;;;6.8;;
6561;SDS011;3314;50.890;4.722;2023-09-30T06:45:16;16.8;;;6.6;;
6561;SDS011;3314;50.890;4.722;2023-09-30T06:47:16;16.2;;;6.0;;
6561;SDS011;3314;50.890;4.722;2023-09-30T06:49:16;16.5;;;5.4;;
6561;SDS011;3314;50.890;4.722;2023-09-30T06:51:16;20.2;;;7.0;;
6561;SDS011;3314;50.890;4.722;2023-09-30T06:53:16;19.4;;;6.5;;
6561;SDS011;3314;50.890;4.722;2023-09-30T06:55:17;19.1;;;6.1;;
6561;SDS011;3314;50.890;4.722;2023-09-30T06:57:06;20.2;;;6.7;;
6561;SDS011;3314;50.890;4.722;2023-09-30T06:59:06;22.9;;;6.1;;
6561;SDS011;3314;50.890;4.722;2023-09-30T07:01:06;19.5;;;6.1;;
6561;SDS011;3314;50.890;4.722;2023-09-30T07:03:07;17.3;;;6.1;;
6561;SDS011;3314;50.890;4.722;2023-09-30T07:05:07;18.6;;;6.4;;
6561;SDS011;3314;50.890;4.722;2023-09-30T07:07:07;23.4;;;6.6;;
6561;SDS011;3314;50.890;4.722;2023-09-30T07:09:07;18.2;;;6.3;;
6561;SDS011;3314;50.890;4.722;2023-09-30T07:11:08;15.8;;;5.6;;
6561;SDS011;3314;50.890;4.722;2023-09-30T07:13:08;20.4;;;7.1;;
6561;SDS011;3314;50.890;4.722;2023-09-30T07:15:08;21.1;;;6.5;;
6561;SDS011;3314;50.890;4.722;2023-09-30T07:17:08;16.6;;;6.4;;
6561;SDS011;3314;50.890;4.722;2023-09-30T07:19:08;17.3;;;6.4;;
6561;SDS011;3314;50.890;4.722;2023-09-30T07:21:07;18.9;;;6.0;;
6561;SDS011;3314;50.890;4.722;2023-09-30T07:23:09;15.9;;;6.1;;
6561;SDS011;3314;50.890;4.722;2023-09-30T07:25:09;20.6;;;6.2;;
6561;SDS011;3314;50.890;4.722;2023-09-30T07:27:09;22.2;;;6.0;;
6561;SDS011;3314;50.890;4.722;2023-09-30T07:29:09;21.0;;;5.8;;
6561;SDS011;3314;50.890;4.722;2023-09-30T07:31:08;17.5;;;5.9;;
6561;SDS011;3314;50.890;4.722;2023-09-30T07:33:08;18.9;;;5.5;;
6561;SDS011;3314;50.890;4.722;2023-09-30T07:35:08;16.5;;;4.8;;
6561;SDS011;3314;50.890;4.722;2023-09-30T07:37:08;18.0;;;5.5;;
6561;SDS011;3314;50.890;4.722;2023-09-30T07:39:08;16.0;;;5.8;;
6561;SDS011;3314;50.890;4.722;2023-09-30T07:41:10;14.5;;;5.2;;
6561;SDS011;3314;50.890;4.722;2023-09-30T07:42:59;15.9;;;5.1;;
6561;SDS011;3314;50.890;4.722;2023-09-30T07:44:59;18.6;;;5.7;;
6561;SDS011;3314;50.890;4.722;2023-09-30T07:46:59;19.7;;;6.8;;
6561;SDS011;3314;50.890;4.722;2023-09-30T07:48:59;22.2;;;5.8;;
6561;SDS011;3314;50.890;4.722;2023-09-30T07:50:59;17.4;;;5.8;;
6561;SDS011;3314;50.890;4.722;2023-09-30T07:52:59;15.9;;;5.3;;
6561;SDS011;3314;50.890;4.722;2023-09-30T07:54:59;14.3;;;4.8;;
6561;SDS011;3314;50.890;4.722;2023-09-30T07:56:59;16.2;;;5.1;;
6561;SDS011;3314;50.890;4.722;2023-09-30T07:58:59;12.8;;;5.4;;
6561;SDS011;3314;50.890;4.722;2023-09-30T08:00:58;13.7;;;4.1;;
6561;SDS011;3314;50.890;4.722;2023-09-30T08:03:01;13.1;;;4.6;;
6561;SDS011;3314;50.890;4.722;2023-09-30T08:05:01;19.4;;;4.6;;
6561;SDS011;3314;50.890;4.722;2023-09-30T08:07:00;17.9;;;4.7;;
6561;SDS011;3314;50.890;4.722;2023-09-30T08:09:00;24.3;;;5.4;;
6561;SDS011;3314;50.890;4.722;2023-09-30T08:11:00;18.2;;;5.0;;
6561;SDS011;3314;50.890;4.722;2023-09-30T08:13:03;16.1;;;4.9;;
6561;SDS011;3314;50.890;4.722;2023-09-30T08:15:04;15.1;;;4.6;;
6561;SDS011;3314;50.890;4.722;2023-09-30T08:17:04;16.1;;;4.4;;
6561;SDS011;3314;50.890;4.722;2023-09-30T08:19:03;16.1;;;4.8;;
6561;SDS011;3314;50.890;4.722;2023-09-30T08:21:03;17.8;;;5.4;;
6561;SDS011;3314;50.890;4.722;2023-09-30T08:23:03;18.9;;;4.4;;
6561;SDS011;3314;50.890;4.722;2023-09-30T08:25:04;15.9;;;4.7;;
6561;SDS011;3314;50.890;4.722;2023-09-30T08:26:55;23.9;;;5.1;;
6561;SDS011;3314;50.890;4.722;2023-09-30T08:28:54;14.3;;;4.3;;
6561;SDS011;3314;50.890;4.722;2023-09-30T08:31:02;16.1;;;4.7;;
6561;SDS011;3314;50.890;4.722;2023-09-30T08:33:02;17.6;;;4.8;;
6561;SDS011;3314;50.890;4.722;2023-09-30T08:35:01;16.7;;;4.9;;
6561;SDS011;3314;50.890;4.722;2023-09-30T08:37:01;16.5;;;5.2;;
6561;SDS011;3314;50.890;4.722;2023-09-30T08:39:01;18.5;;;4.8;;
6561;SDS011;3314;50.890;4.722;2023-09-30T08:41:01;21.5;;;4.8;;
6561;SDS011;3314;50.890;4.722;2023-09-30T08:43:00;19.1;;;4.9;;
6561;SDS011;3314;50.890;4.722;2023-09-30T08:44:52;15.7;;;5.1;;
6561;SDS011;3314;50.890;4.722;2023-09-30T08:46:52;20.8;;;5.0;;
6561;SDS011;3314;50.890;4.722;2023-09-30T08:48:53;16.9;;;4.3;;
6561;SDS011;3314;50.890;4.722;2023-09-30T08:50:53;16.9;;;4.2;;
6561;SDS011;3314;50.890;4.722;2023-09-30T08:52:53;21.6;;;4.0;;
6561;SDS011;3314;50.890;4.722;2023-09-30T08:54:53;16.2;;;3.8;;
6561;SDS011;3314;50.890;4.722;2023-09-30T08:56:53;18.6;;;4.3;;
6561;SDS011;3314;50.890;4.722;2023-09-30T08:58:53;15.8;;;4.4;;
6561;SDS011;3314;50.890;4.722;2023-09-30T09:00:54;17.7;;;4.4;;
6561;SDS011;3314;50.890;4.722;2023-09-30T09:02:53;22.4;;;4.4;;
6561;SDS011;3314;50.890;4.722;2023-09-30T09:04:53;14.9;;;4.2;;
6561;SDS011;3314;50.890;4.722;2023-09-30T09:06:53;15.3;;;3.8;;
6561;SDS011;3314;50.890;4.722;2023-09-30T09:08:53;18.4;;;4.2;;
6561;SDS011;3314;50.890;4.722;2023-09-30T09:10:53;21.2;;;4.3;;
6561;SDS011;3314;50.890;4.722;2023-09-30T09:12:55;19.4;;;3.7;;
6561;SDS011;3314;50.890;4.722;2023-09-30T09:14:55;14.8;;;3.6;;
6561;SDS011;3314;50.890;4.722;2023-09-30T09:16:55;16.0;;;3.4;;
6561;SDS011;3314;50.890;4.722;2023-09-30T09:18:55;21.4;;;4.8;;
6561;SDS011;3314;50.890;4.722;2023-09-30T09:20:57;19.0;;;4.0;;
6561;SDS011;3314;50.890;4.722;2023-09-30T09:22:56;17.9;;;4.8;;
6561;SDS011;3314;50.890;4.722;2023-09-30T09:24:55;15.5;;;4.0;;
6561;SDS011;3314;50.890;4.722;2023-09-30T09:26:47;13.3;;;3.6;;
6561;SDS011;3314;50.890;4.722;2023-09-30T09:28:48;16.5;;;3.3;;
6561;SDS011;3314;50.890;4.722;2023-09-30T09:30:48;12.9;;;3.3;;
6561;SDS011;3314;50.890;4.722;2023-09-30T09:32:58;13.6;;;3.3;;
6561;SDS011;3314;50.890;4.722;2023-09-30T09:34:47;15.4;;;4.2;;
6561;SDS011;3314;50.890;4.722;2023-09-30T09:36:46;15.6;;;3.4;;
6561;SDS011;3314;50.890;4.722;2023-09-30T09:38:47;15.4;;;3.2;;
6561;SDS011;3314;50.890;4.722;2023-09-30T09:40:47;18.6;;;3.7;;
6561;SDS011;3314;50.890;4.722;2023-09-30T09:42:46;13.0;;;3.1;;
6561;SDS011;3314;50.890;4.722;2023-09-30T09:44:46;11.4;;;2.9;;
6561;SDS011;3314;50.890;4.722;2023-09-30T09:46:46;16.4;;;3.8;;
6561;SDS011;3314;50.890;4.722;2023-09-30T09:48:47;18.8;;;3.8;;
6561;SDS011;3314;50.890;4.722;2023-09-30T09:50:47;14.2;;;3.5;;
6561;SDS011;3314;50.890;4.722;2023-09-30T09:52:47;16.2;;;3.6;;
6561;SDS011;3314;50.890;4.722;2023-09-30T09:54:47;15.9;;;3.2;;
6561;SDS011;3314;50.890;4.722;2023-09-30T09:56:47;11.0;;;3.3;;
6561;SDS011;3314;50.890;4.722;2023-09-30T09:58:48;12.0;;;3.1;;
6561;SDS011;3314;50.890;4.722;2023-09-30T10:00:49;16.0;;;3.5;;
6561;SDS011;3314;50.890;4.722;2023-09-30T10:02:49;13.1;;;3.3;;
6561;SDS011;3314;50.890;4.722;2023-09-30T10:04:48;13.8;;;3.6;;
6561;SDS011;3314;50.890;4.722;2023-09-30T10:06:50;13.4;;;3.4;;
6561;SDS011;3314;50.890;4.722;2023-09-30T10:08:52;19.6;;;3.3;;
6561;SDS011;3314;50.890;4.722;2023-09-30T10:10:51;17.0;;;3.5;;
6561;SDS011;3314;50.890;4.722;2023-09-30T10:12:51;13.4;;;3.4;;
6561;SDS011;3314;50.890;4.722;2023-09-30T10:14:52;12.8;;;3.0;;
6561;SDS011;3314;50.890;4.722;2023-09-30T10:16:52;12.5;;;2.7;;
6561;SDS011;3314;50.890;4.722;2023-09-30T10:19:07;18.4;;;2.9;;
6561;SDS011;3314;50.890;4.722;2023-09-30T10:20:45;11.2;;;2.3;;
6561;SDS011;3314;50.890;4.722;2023-09-30T10:22:49;11.2;;;2.3;;
6561;SDS011;3314;50.890;4.722;2023-09-30T10:24:41;12.5;;;2.7;;
6561;SDS011;3314;50.890;4.722;2023-09-30T10:26:41;13.0;;;2.7;;
6561;SDS011;3314;50.890;4.722;2023-09-30T10:28:42;16.4;;;2.5;;
6561;SDS011;3314;50.890;4.722;2023-09-30T10:30:52;14.9;;;2.9;;
6561;SDS011;3314;50.890;4.722;2023-09-30T10:33:14;11.8;;;2.7;;
6561;SDS011;3314;50.890;4.722;2023-09-30T10:34:49;10.7;;;2.6;;
6561;SDS011;3314;50.890;4.722;2023-09-30T10:36:57;15.0;;;2.6;;
6561;SDS011;3314;50.890;4.722;2023-09-30T10:38:45;12.5;;;2.6;;
6561;SDS011;3314;50.890;4.722;2023-09-30T10:40:45;14.3;;;2.6;;
6561;SDS011;3314;50.890;4.722;2023-09-30T10:42:46;15.7;;;2.9;;
6561;SDS011;3314;50.890;4.722;2023-09-30T10:44:47;14.1;;;2.8;;
6561;SDS011;3314;50.890;4.722;2023-09-30T10:46:46;16.1;;;2.5;;
6561;SDS011;3314;50.890;4.722;2023-09-30T10:48:48;15.8;;;2.9;;
6561;SDS011;3314;50.890;4.722;2023-09-30T10:50:49;10.7;;;2.3;;
6561;SDS011;3314;50.890;4.722;2023-09-30T10:52:38;9.8;;;2.4;;
6561;SDS011;3314;50.890;4.722;2023-09-30T10:54:39;14.0;;;2.5;;
6561;SDS011;3314;50.890;4.722;2023-09-30T10:56:38;12.4;;;3.1;;
6561;SDS011;3314;50.890;4.722;2023-09-30T10:58:39;12.9;;;2.3;;
6561;SDS011;3314;50.890;4.722;2023-09-30T11:00:39;12.9;;;2.2;;
6561;SDS011;3314;50.890;4.722;2023-09-30T11:02:47;11.8;;;2.1;;
6561;SDS011;3314;50.890;4.722;2023-09-30T11:04:47;12.1;;;2.0;;
6561;SDS011;3314;50.890;4.722;2023-09-30T11:06:47;11.3;;;2.2;;
6561;SDS011;3314;50.890;4.722;2023-09-30T11:08:50;11.9;;;2.1;;
6561;SDS011;3314;50.890;4.722;2023-09-30T11:10:38;11.2;;;1.8;;
6561;SDS011;3314;50.890;4.722;2023-09-30T11:12:53;13.1;;;2.5;;
6561;SDS011;3314;50.890;4.722;2023-09-30T11:14:41;11.3;;;2.0;;
6561;SDS011;3314;50.890;4.722;2023-09-30T11:16:41;10.5;;;1.8;;
6561;SDS011;3314;50.890;4.722;2023-09-30T11:18:41;8.6;;;1.7;;
6561;SDS011;3314;50.890;4.722;2023-09-30T11:20:41;9.0;;;1.8;;
6561;SDS011;3314;50.890;4.722;2023-09-30T11:22:41;10.8;;;2.1;;
6561;SDS011;3314;50.890;4.722;2023-09-30T11:24:40;17.0;;;2.2;;
6561;SDS011;3314;50.890;4.722;2023-09-30T11:26:41;9.6;;;1.8;;
6561;SDS011;3314;50.890;4.722;2023-09-30T11:28:42;10.4;;;2.0;;
6561;SDS011;3314;50.890;4.722;2023-09-30T11:30:57;11.0;;;2.1;;
6561;SDS011;3314;50.890;4.722;2023-09-30T11:32:45;14.0;;;2.6;;
6561;SDS011;3314;50.890;4.722;2023-09-30T11:34:44;11.8;;;1.8;;
6561;SDS011;3314;50.890;4.722;2023-09-30T11:36:47;9.9;;;2.0;;
6561;SDS011;3314;50.890;4.722;2023-09-30T11:38:35;12.7;;;1.6;;
6561;SDS011;3314;50.890;4.722;2023-09-30T11:40:35;9.3;;;1.8;;
6561;SDS011;3314;50.890;4.722;2023-09-30T11:42:35;12.6;;;2.1;;
6561;SDS011;3314;50.890;4.722;2023-09-30T11:44:37;10.9;;;2.2;;
6561;SDS011;3314;50.890;4.722;2023-09-30T11:46:47;10.9;;;1.7;;
6561;SDS011;3314;50.890;4.722;2023-09-30T11:48:35;9.0;;;1.8;;
6561;SDS011;3314;50.890;4.722;2023-09-30T11:50:51;11.7;;;2.1;;
6561;SDS011;3314;50.890;4.722;2023-09-30T11:52:44;12.4;;;1.8;;
6561;SDS011;3314;50.890;4.722;2023-09-30T11:54:36;13.2;;;2.4;;
6561;SDS011;3314;50.890;4.722;2023-09-30T11:56:36;7.4;;;1.7;;
6561;SDS011;3314;50.890;4.722;2023-09-30T11:58:36;9.8;;;2.8;;
6561;SDS011;3314;50.890;4.722;2023-09-30T12:00:35;10.2;;;1.9;;
6561;SDS011;3314;50.890;4.722;2023-09-30T12:02:40;9.7;;;1.9;;
6561;SDS011;3314;50.890;4.722;2023-09-30T12:04:40;12.2;;;1.9;;
6561;SDS011;3314;50.890;4.722;2023-09-30T12:06:40;13.9;;;2.3;;
6561;SDS011;3314;50.890;4.722;2023-09-30T12:08:39;11.8;;;2.6;;
6561;SDS011;3314;50.890;4.722;2023-09-30T12:10:39;9.2;;;1.7;;
6561;SDS011;3314;50.890;4.722;2023-09-30T12:12:40;13.6;;;2.4;;
6561;SDS011;3314;50.890;4.722;2023-09-30T12:14:40;10.3;;;1.6;;
6561;SDS011;3314;50.890;4.722;2023-09-30T12:16:39;13.0;;;2.4;;
6561;SDS011;3314;50.890;4.722;2023-09-30T12:18:39;12.0;;;2.0;;
6561;SDS011;3314;50.890;4.722;2023-09-30T12:20:39;13.4;;;2.2;;
6561;SDS011;3314;50.890;4.722;2023-09-30T12:22:38;10.9;;;1.9;;
6561;SDS011;3314;50.890;4.722;2023-09-30T12:24:38;11.3;;;1.8;;
6561;SDS011;3314;50.890;4.722;2023-09-30T12:26:41;9.2;;;2.4;;
6561;SDS011;3314;50.890;4.722;2023-09-30T12:28:32;10.4;;;2.1;;
6561;SDS011;3314;50.890;4.722;2023-09-30T12:30:32;12.1;;;1.8;;
6561;SDS011;3314;50.890;4.722;2023-09-30T12:32:32;15.4;;;2.0;;
6561;SDS011;3314;50.890;4.722;2023-09-30T12:34:33;12.9;;;2.4;;
6561;SDS011;3314;50.890;4.722;2023-09-30T12:36:33;13.2;;;1.9;;